Du har inga inställningar för hoppväder.nu

Hoppväder.nu

Senast uppdaterat 02:16

UTC-tid

2018-01-17 kl. 01:16


Sol och måne

Solen går upp 8:24 och går ner 16:10 (beräknade cirkatider)
Nästa fullmåne blir om 14 dagar (2018-01-31)

METAR

ESMS (Malmö)
(26 minuter sedan)
ESMS 170050Z 25010KT 9999 BKN007 01/01 Q0984 RWY 17 WET OR WATER PATCHES 51-100 PCT BA GOOD=



ESMK (Everöd)
(26 minuter sedan)
ESMK 170050Z AUTO 24003KT 9999 BKN013/// 02/02 Q0984=



ESTL (Ljungbyhed)
ESTL NIL=



EKCH (Köpenhamn)
(26 minuter sedan)
EKCH 170050Z 25010KT 9999 SCT008 01/00 Q0985 TEMPO BKN008=



ESTA (Ängelholm)
(26 minuter sedan)
ESTA 170050Z AUTO 22010KT 9999 BKN006/// OVC010/// 02/01 Q0984=



TAF

ESMS (Malmö)
(122 minuter sedan)
ESMS 162314Z 1700/1724 24010KT 9999 BKN015 TEMPO 1700/1709 4000 BR BKN005 TEMPO 1709/1718 BKN008=



ESMK (Everöd)
(136 minuter sedan)
ESMK 162300Z NIL=



ESTL (Ljungbyhed)
(136 minuter sedan)
ESTL 162300Z NIL=



EKCH (Köpenhamn)
(126 minuter sedan)
EKCH 162310Z 1700/1724 24010KT 9999 BKN015 TEMPO 1700/1708 BKN008 TEMPO 1708/1715 BKN012=



ESTA (Ängelholm)
(136 minuter sedan)
ESTA 162300Z NIL=





Kodnycklar till TAF och METAR






LHP

(Eslöv är område J3c i Hela Område E)

Prognos är inte uppdaterad




Spotting

Hur fungerar spotthjälpen och Vindkartan?

Markvind är ca 0 m/s.



Vindkartan

Senast uppdaterad 02:16



All data kommer från LFV.se